KRBG/RBG METAR and TAF weather

Enter ICAO airport designator
Station Type Date Time Source
KRBG METAR 2019/12/08 17:10 UTC NOAA

KRBG 081710Z AUTO 00000KT 9SM SCT004 BKN018 OVC042 09/08 A3007 RMK AO2 T00940083


Station Type Date Time Source
KRBG Decoded METAR 2019/12/08 17:10 UTC NOAA

ROSEBURG REGIONAL AIRPORT, OR, United States (KRBG) 43-14N 123-21W 154M
Dec 08, 2019 - 12:10 PM EST / 2019.12.08 1710 UTC
Wind: Calm:0
Visibility: 9 mile(s):0
Sky conditions: overcast
Temperature: 48.9 F (9.4 C)
Dew Point: 46.9 F (8.3 C)
Relative Humidity: 92%
Pressure (altimeter): 30.07 in. Hg (1018 hPa)
ob: KRBG 081710Z AUTO 00000KT 9SM SCT004 BKN018 OVC042 09/08 A3007 RMK AO2 T00940083
cycle: 17

Station Type Date Time Source
KRBG TAF 2019/12/08 12:33 UTC NOAA

TAF KRBG 081129Z 0812/0912 00000KT 5SM BR VCSH SCT010 OVC025
FM081700 00000KT P6SM OVC025
FM082200 VRB03KT P6SM SCT025 BKN035
FM090300 00000KT 4SM BR SCT002 BKN008
FM090400 00000KT 1/2SM FG OVC002

Example: see airport list